Time;durP1;ratioP1;P1;durP2;ratioP2;P2;SDS_P1;SDS_P2;PMS_P1;PMS_P2;Temp;Humidity;BMP_temperature;BMP_pressure;BME280_temperature;BME280_humidity;BME280_pressure;Samples;Min_cycle;Max_cycle;Signal;HPM_P1;HPM_P2
2022/05/13 00:00:52;;;;;;;6.27;5.63;;;17.90;81.20;;;;;;4883845;28;96114;-62
2022/05/13 00:03:23;;;;;;;7.95;6.40;;;17.90;81.20;;;;;;4892301;28;95795;-62
2022/05/13 00:05:55;;;;;;;6.93;5.95;;;17.90;81.80;;;;;;4892124;28;95775;-62
2022/05/13 00:08:31;;;;;;;6.75;5.65;;;17.90;81.20;;;;;;4892957;28;95477;-62
2022/05/13 00:11:09;;;;;;;7.43;6.30;;;17.90;81.20;;;;;;4890405;28;96241;-63
2022/05/13 00:13:40;;;;;;;6.90;6.07;;;17.90;81.20;;;;;;4894960;28;95370;-61
2022/05/13 00:16:12;;;;;;;6.25;5.18;;;17.90;81.20;;;;;;4877958;28;96160;-62
2022/05/13 00:18:43;;;;;;;8.35;5.95;;;17.90;81.20;;;;;;4891625;28;95518;-62
2022/05/13 00:21:15;;;;;;;7.25;6.45;;;17.90;81.10;;;;;;4894276;28;97025;-62
2022/05/13 00:23:46;;;;;;;7.85;5.53;;;17.90;81.10;;;;;;4897867;28;95339;-63
2022/05/13 00:26:16;;;;;;;8.25;6.38;;;18.00;81.10;;;;;;4894002;28;95670;-62
2022/05/13 00:28:47;;;;;;;6.05;5.25;;;17.90;81.10;;;;;;4896315;28;95811;-62
2022/05/13 00:31:19;;;;;;;6.85;6.03;;;18.00;81.10;;;;;;4888850;28;95877;-62
2022/05/13 00:33:51;;;;;;;6.85;6.03;;;18.00;81.10;;;;;;4892018;28;95734;-62
2022/05/13 00:36:22;;;;;;;6.57;5.95;;;18.00;81.00;;;;;;4884506;28;95730;-62
2022/05/13 00:38:54;;;;;;;6.43;5.75;;;18.00;81.00;;;;;;4895280;28;96406;-62
2022/05/13 00:41:26;;;;;;;7.65;6.25;;;18.00;81.00;;;;;;4894261;28;96619;-62
2022/05/13 00:43:57;;;;;;;6.40;5.78;;;18.00;81.00;;;;;;4894222;28;95967;-62
2022/05/13 00:46:29;;;;;;;8.00;5.50;;;18.00;81.00;;;;;;4890512;28;95809;-61
2022/05/13 00:49:06;;;;;;;6.68;5.97;;;18.00;81.00;;;;;;4894683;28;95832;-60
2022/05/13 00:51:41;;;;;;;6.43;5.82;;;18.00;80.90;;;;;;4895759;28;95908;-60
2022/05/13 00:54:14;;;;;;;5.90;5.30;;;18.00;80.90;;;;;;4895236;28;95747;-60
2022/05/13 00:56:49;;;;;;;6.25;5.63;;;18.00;80.90;;;;;;4905887;28;95376;-61
2022/05/13 00:59:24;;;;;;;6.03;5.43;;;18.10;81.00;;;;;;4895249;28;95799;-60
2022/05/13 01:01:55;;;;;;;6.13;5.47;;;18.00;80.90;;;;;;4888518;28;96039;-60
2022/05/13 01:04:27;;;;;;;5.63;4.97;;;18.00;80.90;;;;;;4892777;28;95975;-60
2022/05/13 01:07:00;;;;;;;6.60;5.68;;;18.10;80.90;;;;;;4892810;28;95927;-60
2022/05/13 01:09:36;;;;;;;5.68;5.05;;;18.00;80.80;;;;;;4894771;28;95660;-61
2022/05/13 01:12:14;;;;;;;5.57;5.07;;;18.00;80.80;;;;;;4888343;28;95545;-60
2022/05/13 01:14:56;;;;;;;6.07;5.35;;;18.10;80.90;;;;;;4889194;28;95382;-58
2022/05/13 01:20:37;;;;;;;5.85;5.25;;;18.10;80.90;;;;;;4894376;28;95656;-59
2022/05/13 01:23:11;;;;;;;;;;;18.00;80.90;;;;;;4891945;28;96610;-59
2022/05/13 01:26:01;;;;;;;6.43;5.55;;;18.10;80.90;;;;;;4894553;28;96027;-59
2022/05/13 01:28:38;;;;;;;6.03;5.38;;;18.10;80.80;;;;;;4893790;28;96081;-60
2022/05/13 01:31:13;;;;;;;6.25;5.63;;;18.10;80.80;;;;;;4888884;28;95831;-60
2022/05/13 01:33:44;;;;;;;6.65;5.57;;;18.10;80.90;;;;;;4889357;28;96775;-60
2022/05/13 01:36:16;;;;;;;6.77;6.07;;;18.10;80.80;;;;;;4893711;28;96328;-59
2022/05/13 01:38:48;;;;;;;6.72;5.63;;;18.10;80.70;;;;;;4893038;28;95246;-60
2022/05/13 01:41:19;;;;;;;5.32;4.82;;;18.10;80.70;;;;;;4900395;28;95745;-60
2022/05/13 01:43:51;;;;;;;5.65;5.15;;;18.10;80.80;;;;;;4894034;28;95822;-59
2022/05/13 01:46:22;;;;;;;5.45;4.95;;;18.10;80.80;;;;;;4889479;28;95532;-59
2022/05/13 01:48:56;;;;;;;6.07;5.03;;;18.10;80.80;;;;;;4894953;28;95511;-59
2022/05/13 01:51:28;;;;;;;5.93;5.32;;;18.10;80.70;;;;;;4896723;28;95765;-59
2022/05/13 01:54:02;;;;;;;5.82;5.22;;;18.10;80.70;;;;;;4888421;28;96053;-61
2022/05/13 01:56:33;;;;;;;5.72;5.15;;;18.10;80.60;;;;;;4879607;28;95629;-61
2022/05/13 01:59:07;;;;;;;6.40;5.10;;;18.10;80.80;;;;;;4888657;28;95895;-58
2022/05/13 02:01:38;;;;;;;5.57;4.88;;;18.10;81.10;;;;;;4879553;28;95822;-60
2022/05/13 02:04:10;;;;;;;6.57;4.93;;;18.10;81.20;;;;;;4885564;28;96094;-59
2022/05/13 02:06:41;;;;;;;4.93;4.53;;;18.10;81.40;;;;;;4887188;28;95845;-60
2022/05/13 02:09:12;;;;;;;6.32;5.47;;;18.10;81.30;;;;;;4889901;28;95706;-60
2022/05/13 02:11:45;;;;;;;6.90;5.40;;;18.10;81.40;;;;;;4894234;28;95675;-59
2022/05/13 02:14:18;;;;;;;4.65;4.22;;;18.10;81.40;;;;;;4885401;28;98019;-60
2022/05/13 02:16:49;;;;;;;7.00;5.57;;;18.10;81.40;;;;;;4873511;28;98056;-59
2022/05/13 02:19:21;;;;;;;9.20;5.32;;;18.10;81.20;;;;;;4890687;28;95615;-59
2022/05/13 02:21:52;;;;;;;4.70;4.22;;;18.10;81.20;;;;;;4892659;28;95428;-61
2022/05/13 02:24:23;;;;;;;5.15;4.75;;;18.20;81.30;;;;;;4892695;28;95912;-62
2022/05/13 02:26:54;;;;;;;9.00;5.43;;;18.20;81.20;;;;;;4892408;28;95841;-63
2022/05/13 02:29:25;;;;;;;5.20;4.70;;;18.20;81.60;;;;;;4887205;28;95835;-62
2022/05/13 02:31:55;;;;;;;10.38;4.70;;;18.20;81.40;;;;;;4883651;28;95747;-63
2022/05/13 02:34:25;;;;;;;5.13;4.63;;;18.20;81.50;;;;;;4888459;28;95880;-63
2022/05/13 02:36:58;;;;;;;5.45;4.80;;;18.20;81.40;;;;;;4887232;28;96358;-64
2022/05/13 02:39:30;;;;;;;5.25;4.75;;;18.30;81.50;;;;;;4891636;28;95768;-64
2022/05/13 02:42:04;;;;;;;5.07;4.28;;;18.30;81.50;;;;;;4889495;28;96112;-62
2022/05/13 02:44:34;;;;;;;4.82;4.32;;;18.30;81.50;;;;;;4882906;28;96606;-64
2022/05/13 02:47:06;;;;;;;5.90;5.20;;;18.40;81.50;;;;;;4882181;28;95980;-65
2022/05/13 02:49:38;;;;;;;4.97;4.32;;;18.40;81.50;;;;;;4883963;28;98204;-64
2022/05/13 02:52:11;;;;;;;5.43;4.25;;;18.40;81.40;;;;;;4893280;28;95666;-63
2022/05/13 02:54:42;;;;;;;6.07;4.90;;;18.40;81.30;;;;;;4893313;28;95826;-63
2022/05/13 02:57:14;;;;;;;4.40;4.00;;;18.40;81.30;;;;;;4890693;28;96391;-63
2022/05/13 02:59:45;;;;;;;5.43;4.50;;;18.40;81.40;;;;;;4881812;28;95921;-65
2022/05/13 03:02:16;;;;;;;8.00;4.27;;;18.40;81.50;;;;;;4885440;28;95738;-61
2022/05/13 03:04:47;;;;;;;;;;;18.50;81.50;;;;;;4891977;28;96539;-63
2022/05/13 03:07:17;;;;;;;5.80;4.70;;;18.50;81.40;;;;;;4883873;28;95792;-63
2022/05/13 03:09:48;;;;;;;6.85;3.72;;;18.50;81.50;;;;;;4896330;28;95765;-62
2022/05/13 03:12:19;;;;;;;4.00;3.60;;;18.50;81.50;;;;;;4894072;28;95930;-64
2022/05/13 03:14:49;;;;;;;4.57;4.18;;;18.50;81.50;;;;;;4886940;28;96323;-65
2022/05/13 03:17:20;;;;;;;4.82;4.30;;;18.60;81.50;;;;;;4892648;28;96023;-63
2022/05/13 03:19:54;;;;;;;4.60;4.20;;;18.60;78.50;;;;;;4910009;28;95744;-64
2022/05/13 03:22:29;;;;;;;4.43;4.03;;;18.60;81.60;;;;;;4910123;28;95772;-63
2022/05/13 03:25:01;;;;;;;4.80;4.40;;;18.70;81.70;;;;;;4910943;28;95909;-63
2022/05/13 03:27:31;;;;;;;;;;;18.80;81.60;;;;;;4907519;28;95964;-62
2022/05/13 03:30:04;;;;;;;3.25;2.95;;;18.80;82.30;;;;;;4900359;28;95275;-63
2022/05/13 03:32:36;;;;;;;3.70;3.40;;;18.90;81.50;;;;;;4898002;28;95537;-63
2022/05/13 03:35:09;;;;;;;3.90;3.50;;;18.90;81.50;;;;;;4899192;28;96604;-64
2022/05/13 03:37:40;;;;;;;4.15;3.13;;;18.90;81.30;;;;;;4905838;28;95813;-62
2022/05/13 03:40:14;;;;;;;4.05;3.65;;;19.00;81.40;;;;;;4910024;28;95637;-62
2022/05/13 03:42:45;;;;;;;3.28;2.97;;;19.00;81.20;;;;;;4896715;28;95882;-62
2022/05/13 03:45:18;;;;;;;4.68;3.95;;;19.00;81.20;;;;;;4899269;28;95911;-61
2022/05/13 03:47:49;;;;;;;3.47;3.17;;;19.00;81.20;;;;;;4905337;28;95844;-62
2022/05/13 03:50:21;;;;;;;3.28;3.08;;;19.10;81.10;;;;;;4911028;28;95582;-61
2022/05/13 03:52:53;;;;;;;3.63;3.33;;;19.00;81.10;;;;;;4911160;28;95877;-62
2022/05/13 03:55:25;;;;;;;3.75;3.45;;;19.10;81.00;;;;;;4911966;28;95866;-61
2022/05/13 03:57:59;;;;;;;3.65;3.35;;;19.10;81.00;;;;;;4911468;28;95574;-61
2022/05/13 04:00:30;;;;;;;3.22;2.92;;;19.10;81.00;;;;;;4894733;28;95374;-61
2022/05/13 04:03:04;;;;;;;4.00;3.70;;;19.10;81.70;;;;;;4876185;28;95772;-61
2022/05/13 04:11:16;;;;;;;5.53;5.03;;;19.10;81.10;;;;;;4872594;28;96188;-62
2022/05/13 04:16:39;;;;;;;8.35;7.65;;;19.10;81.10;;;;;;4881266;28;98300;-62
2022/05/13 04:19:10;;;;;;;11.77;10.77;;;19.20;81.10;;;;;;4876655;28;96631;-62
2022/05/13 04:21:44;;;;;;;12.85;11.65;;;19.20;81.10;;;;;;4876509;28;95281;-62
2022/05/13 04:24:19;;;;;;;14.02;12.65;;;19.30;81.20;;;;;;4875103;28;95686;-62
2022/05/13 04:26:50;;;;;;;15.57;14.07;;;19.30;81.10;;;;;;4872952;28;95936;-63
2022/05/13 04:29:21;;;;;;;15.65;14.23;;;19.30;81.10;;;;;;4880181;28;95588;-61
2022/05/13 04:31:52;;;;;;;;;;;19.30;81.10;;;;;;4871338;28;95740;-62
2022/05/13 04:34:23;;;;;;;18.27;16.65;;;19.30;81.00;;;;;;4880797;28;95404;-62
2022/05/13 04:36:55;;;;;;;16.70;15.20;;;19.40;81.10;;;;;;4878495;28;95985;-61
2022/05/13 04:39:26;;;;;;;17.38;15.77;;;19.40;81.00;;;;;;4874698;28;96057;-61
2022/05/13 04:44:46;;;;;;;16.15;14.65;;;19.40;80.90;;;;;;4873536;28;96216;-61
2022/05/13 04:50:07;;;;;;;18.70;16.83;;;19.40;81.20;;;;;;4882600;28;95714;-60
2022/05/13 04:52:39;;;;;;;19.17;16.52;;;19.40;81.30;;;;;;4871985;28;95295;-61
2022/05/13 04:55:11;;;;;;;;;;;19.40;81.30;;;;;;4904008;28;95788;-61
2022/05/13 04:57:42;;;;;;;16.05;14.50;;;19.40;81.30;;;;;;4883995;28;96574;-61
2022/05/13 05:00:13;;;;;;;16.00;14.43;;;19.40;81.30;;;;;;4875168;28;96450;-62
2022/05/13 05:02:45;;;;;;;15.50;13.98;;;19.40;81.30;;;;;;4908748;28;96964;-61
2022/05/13 05:05:16;;;;;;;;;;;19.40;81.40;;;;;;4902736;28;95745;-60
2022/05/13 05:07:47;;;;;;;14.38;12.93;;;19.40;81.30;;;;;;4905049;28;96182;-60
2022/05/13 05:10:21;;;;;;;15.13;13.63;;;19.40;81.40;;;;;;4908529;28;96235;-60
2022/05/13 05:12:56;;;;;;;16.13;14.43;;;19.40;81.60;;;;;;4905277;28;95730;-59
2022/05/13 05:15:28;;;;;;;16.02;14.50;;;19.40;81.60;;;;;;4906509;28;96072;-60
2022/05/13 05:17:59;;;;;;;14.52;13.07;;;19.40;81.70;;;;;;4905358;28;102276;-60
2022/05/13 05:20:30;;;;;;;15.32;13.07;;;19.40;81.80;;;;;;4908458;28;95883;-61
2022/05/13 05:23:01;;;;;;;13.75;12.30;;;19.40;81.80;;;;;;4912317;28;95571;-61
2022/05/13 05:25:33;;;;;;;14.60;13.20;;;19.40;81.80;;;;;;4912297;28;96452;-60
2022/05/13 05:28:04;;;;;;;13.32;11.93;;;19.40;81.90;;;;;;4910586;28;96021;-60
2022/05/13 05:30:37;;;;;;;;;;;19.40;79.30;;;;;;4901540;28;95733;-60
2022/05/13 05:33:07;;;;;;;15.35;13.15;;;19.40;81.80;;;;;;4910063;28;95876;-62
2022/05/13 05:35:38;;;;;;;13.55;12.23;;;19.40;81.90;;;;;;4903805;28;95611;-61
2022/05/13 05:38:09;;;;;;;;;;;19.40;82.10;;;;;;4912149;28;97940;-60
2022/05/13 05:40:41;;;;;;;14.20;11.60;;;19.40;82.10;;;;;;4913746;28;95274;-61
2022/05/13 05:43:15;;;;;;;12.52;10.82;;;19.40;82.10;;;;;;4907704;28;97201;-61
2022/05/13 05:45:46;;;;;;;13.82;11.98;;;19.40;82.10;;;;;;4899864;28;96092;-60
2022/05/13 05:48:22;;;;;;;13.25;11.85;;;19.40;82.10;;;;;;4907679;28;95833;-61
2022/05/13 05:50:55;;;;;;;13.40;12.07;;;19.40;82.10;;;;;;4911977;28;95698;-61
2022/05/13 05:59:08;;;;;;;12.63;10.43;;;19.40;82.10;;;;;;4905172;28;95553;-62
2022/05/13 06:01:39;;;;;;;13.52;12.15;;;19.50;82.20;;;;;;4900027;28;95994;-62
2022/05/13 06:04:09;;;;;;;;;;;19.40;82.20;;;;;;4903088;28;96174;-61
2022/05/13 06:06:39;;;;;;;12.68;11.20;;;19.40;82.30;;;;;;4905803;28;95767;-61
2022/05/13 06:09:11;;;;;;;12.55;11.25;;;19.50;82.30;;;;;;4903542;28;96671;-61
2022/05/13 06:11:42;;;;;;;12.27;10.43;;;19.40;82.20;;;;;;4903097;28;96187;-62
2022/05/13 06:14:13;;;;;;;12.80;11.50;;;19.50;82.40;;;;;;4910788;28;95605;-61
2022/05/13 06:16:46;;;;;;;12.68;11.13;;;19.50;82.40;;;;;;4902874;28;95719;-61
2022/05/13 06:19:18;;;;;;;16.10;11.15;;;19.50;82.70;;;;;;4910355;28;96065;-60
2022/05/13 06:21:51;;;;;;;12.75;11.38;;;19.40;82.80;;;;;;4911429;28;98951;-61
2022/05/13 06:24:22;;;;;;;13.55;11.52;;;19.40;82.80;;;;;;4910878;28;95710;-61
2022/05/13 06:26:55;;;;;;;13.65;12.18;;;19.40;83.00;;;;;;4908711;28;95411;-62
2022/05/13 06:29:26;;;;;;;13.48;12.07;;;19.40;83.10;;;;;;4909320;28;96570;-62
2022/05/13 06:31:59;;;;;;;16.10;11.00;;;19.40;83.10;;;;;;4903928;28;95514;-62
2022/05/13 06:34:30;;;;;;;14.93;13.30;;;19.40;83.20;;;;;;4905565;28;97478;-62
2022/05/13 06:37:01;;;;;;;;;;;19.40;83.40;;;;;;4909491;28;95871;-61
2022/05/13 06:39:33;;;;;;;13.98;12.57;;;19.40;83.40;;;;;;4904872;28;95804;-61
2022/05/13 06:42:03;;;;;;;;;;;19.30;83.50;;;;;;4906338;28;96160;-61
2022/05/13 06:44:43;;;;;;;14.07;12.02;;;19.30;83.60;;;;;;4907831;28;95679;-60
2022/05/13 06:47:18;;;;;;;13.23;11.75;;;19.30;83.60;;;;;;4899378;28;95912;-59
2022/05/13 06:49:49;;;;;;;12.82;10.93;;;19.30;83.70;;;;;;4906363;28;96037;-60
2022/05/13 06:52:22;;;;;;;15.43;12.40;;;19.30;83.80;;;;;;4900788;28;95725;-61
2022/05/13 06:55:14;;;;;;;14.77;11.82;;;19.30;83.80;;;;;;4907166;28;95674;-62
2022/05/13 06:57:45;;;;;;;12.68;11.15;;;19.30;83.70;;;;;;4912159;28;96001;-59
2022/05/13 07:00:15;;;;;;;13.97;12.13;;;19.30;83.90;;;;;;4907540;28;95902;-61
2022/05/13 07:02:46;;;;;;;14.35;12.30;;;19.30;84.00;;;;;;4890025;28;95851;-58
2022/05/13 07:05:18;;;;;;;;;;;19.30;84.00;;;;;;4892077;28;97061;-62
2022/05/13 07:07:50;;;;;;;16.27;12.52;;;19.30;84.10;;;;;;4892434;28;95421;-61
2022/05/13 07:10:21;;;;;;;13.02;11.57;;;19.20;84.10;;;;;;4890244;28;95929;-59
2022/05/13 07:12:53;;;;;;;13.57;11.75;;;19.20;84.20;;;;;;4894081;28;96122;-61
2022/05/13 07:15:24;;;;;;;12.90;11.60;;;19.20;84.20;;;;;;4882164;28;96054;-61
2022/05/13 07:17:54;;;;;;;13.70;12.20;;;19.20;84.20;;;;;;4881837;28;95459;-61
2022/05/13 07:20:27;;;;;;;12.48;11.10;;;19.20;84.10;;;;;;4882314;28;95907;-62
2022/05/13 07:22:59;;;;;;;13.52;12.00;;;19.20;84.20;;;;;;4882828;28;95678;-62
2022/05/13 07:25:31;;;;;;;;;;;19.20;84.20;;;;;;4884627;28;95568;-61
2022/05/13 07:28:03;;;;;;;12.30;11.00;;;19.20;84.20;;;;;;4882313;28;95745;-62
2022/05/13 07:30:34;;;;;;;13.27;11.55;;;19.20;84.30;;;;;;4872102;28;96465;-60
2022/05/13 07:33:04;;;;;;;14.90;12.20;;;19.20;84.20;;;;;;4879957;28;95697;-61
2022/05/13 07:35:35;;;;;;;14.43;10.80;;;19.20;84.20;;;;;;4878924;28;95762;-61
2022/05/13 07:38:10;;;;;;;13.70;10.75;;;19.10;84.20;;;;;;4876442;28;95994;-61
2022/05/13 07:43:32;;;;;;;12.30;10.87;;;19.10;84.20;;;;;;4881428;28;96068;-60
2022/05/13 07:46:03;;;;;;;13.80;10.73;;;19.10;84.20;;;;;;4879759;28;95966;-61
2022/05/13 07:48:35;;;;;;;12.55;11.25;;;19.10;84.20;;;;;;4884656;28;95884;-62
2022/05/13 07:51:08;;;;;;;13.30;10.43;;;19.10;84.30;;;;;;4895062;28;95942;-62
2022/05/13 07:53:39;;;;;;;12.85;9.98;;;19.10;84.30;;;;;;4884744;28;95875;-62
2022/05/13 07:56:11;;;;;;;10.65;9.48;;;19.10;84.30;;;;;;4880285;28;95675;-61
2022/05/13 07:58:42;;;;;;;11.98;8.90;;;19.10;84.10;;;;;;4893100;28;95770;-61
2022/05/13 08:01:12;;;;;;;9.60;8.70;;;19.10;81.10;;;;;;4888666;28;97236;-63
2022/05/13 08:03:44;;;;;;;;;;;19.10;84.00;;;;;;4891452;28;95576;-62
2022/05/13 08:06:18;;;;;;;10.45;9.25;;;19.10;84.00;;;;;;4891870;28;95555;-62
2022/05/13 08:08:55;;;;;;;10.50;9.38;;;19.20;84.00;;;;;;4892841;28;96230;-62
2022/05/13 08:11:31;;;;;;;9.65;8.65;;;19.20;83.90;;;;;;4892403;28;97226;-62
2022/05/13 08:14:07;;;;;;;;;;;19.20;83.80;;;;;;4884152;28;95777;-63
2022/05/13 08:16:41;;;;;;;9.80;8.15;;;19.20;83.70;;;;;;4885021;28;96057;-61
2022/05/13 08:19:17;;;;;;;10.77;9.70;;;19.20;83.70;;;;;;4890220;28;95743;-62
2022/05/13 08:21:49;;;;;;;11.88;9.20;;;19.20;83.60;;;;;;4884868;28;95840;-62
2022/05/13 08:24:25;;;;;;;9.77;8.80;;;19.20;83.60;;;;;;4890622;28;95890;-62
2022/05/13 08:26:57;;;;;;;9.05;8.15;;;19.20;83.60;;;;;;4890971;28;95530;-62
2022/05/13 08:29:30;;;;;;;10.02;8.18;;;19.20;83.60;;;;;;4886391;28;95416;-62
2022/05/13 08:31:59;;;;;;;;;;;19.30;83.60;;;;;;4889453;28;97561;-61
2022/05/13 08:34:30;;;;;;;10.40;8.35;;;19.30;83.50;;;;;;4895646;28;95798;-62
2022/05/13 08:37:02;;;;;;;9.93;8.90;;;19.20;83.50;;;;;;4896175;28;95824;-62
2022/05/13 08:39:36;;;;;;;9.45;8.55;;;19.30;83.50;;;;;;4892310;28;95653;-62
2022/05/13 08:42:38;;;;;;;10.30;9.25;;;19.30;83.50;;;;;;4893189;28;95961;-62
2022/05/13 08:45:10;;;;;;;10.98;9.80;;;19.30;83.50;;;;;;4884492;28;95712;-62
2022/05/13 08:47:56;;;;;;;9.70;8.70;;;19.30;83.40;;;;;;4886765;28;95704;-60
2022/05/13 08:50:32;;;;;;;11.63;10.45;;;19.30;80.30;;;;;;4896102;28;95794;-61
2022/05/13 08:53:34;;;;;;;10.82;9.73;;;19.30;83.90;;;;;;4895288;28;95902;-61
2022/05/13 08:56:16;;;;;;;11.73;10.52;;;19.30;83.30;;;;;;4892375;28;95802;-61
2022/05/13 08:59:10;;;;;;;11.40;10.18;;;19.30;83.30;;;;;;4895312;28;95192;-61
2022/05/13 09:01:58;;;;;;;11.15;9.93;;;19.30;83.40;;;;;;4896294;28;95631;-61
2022/05/13 09:04:39;;;;;;;12.52;10.18;;;19.30;83.40;;;;;;4890553;28;95884;-62
2022/05/13 09:07:35;;;;;;;13.35;11.02;;;19.40;83.60;;;;;;4892884;28;95953;-61
2022/05/13 09:10:07;;;;;;;19.40;13.45;;;19.40;83.60;;;;;;4888892;28;95228;-61
2022/05/13 09:12:48;;;;;;;19.75;15.73;;;19.40;83.80;;;;;;4894940;28;95868;-62
2022/05/13 09:15:42;;;;;;;30.25;18.58;;;19.40;83.90;;;;;;4880012;28;96270;-61
2022/05/13 09:18:28;;;;;;;27.08;18.48;;;19.40;84.00;;;;;;4891942;28;101795;-61
2022/05/13 09:21:13;;;;;;;27.15;18.42;;;19.40;84.00;;;;;;4893259;28;96411;-62
2022/05/13 09:23:45;;;;;;;29.35;19.83;;;19.40;84.10;;;;;;4893197;28;95539;-61
2022/05/13 09:26:26;;;;;;;33.00;19.95;;;19.40;84.10;;;;;;4894529;28;98088;-61
2022/05/13 09:29:07;;;;;;;25.02;18.63;;;19.50;84.40;;;;;;4889983;28;96020;-61
2022/05/13 09:31:46;;;;;;;27.23;20.75;;;19.50;84.30;;;;;;4886618;28;95376;-61
2022/05/13 09:34:36;;;;;;;28.05;17.52;;;19.50;84.30;;;;;;4892438;28;95868;-61
2022/05/13 09:37:26;;;;;;;29.35;18.15;;;19.50;84.20;;;;;;4889023;28;95945;-61
2022/05/13 09:40:18;;;;;;;26.40;18.27;;;19.50;84.20;;;;;;4891324;28;95828;-61
2022/05/13 09:42:54;;;;;;;25.70;18.30;;;19.50;84.30;;;;;;4893539;28;95773;-61
2022/05/13 09:45:31;;;;;;;25.27;19.10;;;19.50;84.20;;;;;;4888377;28;95415;-61
2022/05/13 09:48:18;;;;;;;25.50;17.63;;;19.50;84.20;;;;;;4905782;28;104662;-60
2022/05/13 09:50:59;;;;;;;22.50;16.65;;;19.50;84.20;;;;;;4903920;28;96827;-61
2022/05/13 09:53:34;;;;;;;23.15;17.55;;;19.50;84.10;;;;;;4902005;28;95754;-61
2022/05/13 09:56:05;;;;;;;22.35;15.80;;;19.50;84.10;;;;;;4903896;28;95674;-61
2022/05/13 09:58:51;;;;;;;23.27;17.63;;;19.50;84.00;;;;;;4903047;28;96744;-61
2022/05/13 10:01:29;;;;;;;21.45;16.48;;;19.50;81.00;;;;;;4897313;28;96044;-61
2022/05/13 10:04:10;;;;;;;20.33;15.40;;;19.50;83.80;;;;;;4906030;28;95858;-62
2022/05/13 10:06:42;;;;;;;;;;;19.40;83.80;;;;;;4905178;28;95402;-61
2022/05/13 10:15:37;;;;;;;21.30;16.00;;;19.40;83.60;;;;;;4888794;28;95927;-62
2022/05/13 10:18:24;;;;;;;22.75;16.77;;;19.40;83.60;;;;;;4896564;28;95880;-61
2022/05/13 10:21:09;;;;;;;19.25;14.77;;;19.50;83.70;;;;;;4909601;28;95950;-62
2022/05/13 10:23:43;;;;;;;17.52;15.10;;;19.50;83.60;;;;;;4909192;28;95889;-62
2022/05/13 10:26:18;;;;;;;18.70;13.45;;;19.50;83.70;;;;;;4898292;28;95246;-61
2022/05/13 10:28:58;;;;;;;14.73;12.05;;;19.50;83.70;;;;;;4905989;28;96620;-61
2022/05/13 10:31:34;;;;;;;16.95;12.85;;;19.60;80.70;;;;;;4906353;28;95916;-61
2022/05/13 10:34:25;;;;;;;18.77;13.77;;;19.60;83.50;;;;;;4906381;28;96005;-62
2022/05/13 10:37:14;;;;;;;18.98;14.07;;;19.50;83.50;;;;;;4905519;28;95161;-62
2022/05/13 10:39:53;;;;;;;17.17;12.45;;;19.50;83.40;;;;;;4905974;28;95609;-61
2022/05/13 10:42:26;;;;;;;16.23;12.30;;;19.60;83.40;;;;;;4904730;28;96482;-61
2022/05/13 10:44:59;;;;;;;16.42;12.85;;;19.60;83.40;;;;;;4908390;28;95635;-61
2022/05/13 10:47:46;;;;;;;15.82;12.48;;;19.60;83.30;;;;;;4896998;28;95919;-61
2022/05/13 10:50:57;;;;;;;17.27;13.27;;;19.60;83.00;;;;;;4908208;28;96049;-61
2022/05/13 10:53:40;;;;;;;17.23;12.02;;;19.60;82.90;;;;;;4889044;28;96950;-61
2022/05/13 10:56:18;;;;;;;17.10;13.00;;;19.50;82.90;;;;;;4900993;28;95317;-61
2022/05/13 10:59:00;;;;;;;14.63;12.25;;;19.60;82.90;;;;;;4902591;28;95657;-61
2022/05/13 11:02:01;;;;;;;15.80;11.95;;;19.50;79.80;;;;;;4903944;28;95362;-61
2022/05/13 11:04:54;;;;;;;19.10;12.98;;;19.50;82.70;;;;;;4906018;28;97496;-60
2022/05/13 11:08:12;;;;;;;15.30;10.40;;;19.50;82.60;;;;;;4906598;28;95874;-60
2022/05/13 11:10:50;;;;;;;13.88;11.82;;;19.50;82.70;;;;;;4907561;28;95875;-60
2022/05/13 11:13:20;;;;;;;17.38;11.93;;;19.40;82.70;;;;;;4908052;28;95665;-61
2022/05/13 11:16:25;;;;;;;13.13;11.70;;;19.40;82.70;;;;;;4897429;28;95927;-60
2022/05/13 11:19:07;;;;;;;14.27;11.70;;;19.40;82.70;;;;;;4908930;28;95551;-60
2022/05/13 11:21:56;;;;;;;;;;;19.40;82.70;;;;;;4910114;28;95309;-60
2022/05/13 11:28:14;;;;;;;15.65;11.98;;;19.40;82.80;;;;;;4907476;28;96140;-60
2022/05/13 11:30:51;;;;;;;17.02;11.38;;;19.30;82.70;;;;;;4897923;28;96237;-59
2022/05/13 11:33:49;;;;;;;15.15;11.77;;;19.30;82.80;;;;;;4905296;28;95548;-60
2022/05/13 11:36:37;;;;;;;17.05;13.20;;;19.30;82.80;;;;;;4907390;28;95764;-60
2022/05/13 11:39:37;;;;;;;16.58;13.13;;;19.30;82.90;;;;;;4910566;28;97097;-60
2022/05/13 11:42:34;;;;;;;18.88;13.40;;;19.30;82.80;;;;;;4905569;28;95973;-59
2022/05/13 11:45:27;;;;;;;15.45;13.30;;;19.30;82.80;;;;;;4904250;28;95325;-60
2022/05/13 11:48:21;;;;;;;15.80;12.75;;;19.30;82.80;;;;;;4907414;28;95480;-60
2022/05/13 11:50:54;;;;;;;18.92;14.70;;;19.30;79.90;;;;;;4906636;28;95936;-60
2022/05/13 11:53:48;;;;;;;16.67;13.52;;;19.20;82.70;;;;;;4911198;28;96306;-60
2022/05/13 11:56:32;;;;;;;16.90;14.35;;;19.20;82.80;;;;;;4911116;28;95572;-61
2022/05/13 11:59:05;;;;;;;16.10;13.95;;;19.20;82.70;;;;;;4916590;28;95811;-60
2022/05/13 12:01:44;;;;;;;13.57;11.95;;;19.20;82.80;;;;;;4895297;28;96032;-60
2022/05/13 12:04:21;;;;;;;15.00;13.45;;;19.20;82.80;;;;;;4890995;28;95883;-60
2022/05/13 12:06:50;;;;;;;16.42;13.43;;;19.20;82.80;;;;;;4895112;28;95904;-60
2022/05/13 12:09:30;;;;;;;17.70;14.52;;;19.20;82.80;;;;;;4895109;28;95738;-61
2022/05/13 12:12:13;;;;;;;15.63;13.80;;;19.20;82.70;;;;;;4897887;28;95912;-61
2022/05/13 12:15:05;;;;;;;15.52;12.63;;;19.20;82.70;;;;;;4888796;28;95381;-61
2022/05/13 12:17:48;;;;;;;16.05;14.00;;;19.20;82.80;;;;;;4878849;28;95875;-61
2022/05/13 12:20:44;;;;;;;14.70;12.80;;;19.10;82.60;;;;;;4894613;28;95533;-61
2022/05/13 12:23:35;;;;;;;17.17;14.75;;;19.20;82.80;;;;;;4890734;28;95425;-61
2022/05/13 12:26:10;;;;;;;16.90;14.07;;;19.20;82.80;;;;;;4893423;28;96111;-61
2022/05/13 12:28:43;;;;;;;15.13;13.48;;;19.10;82.70;;;;;;4890237;28;95760;-61
2022/05/13 12:31:27;;;;;;;17.00;14.38;;;19.10;82.70;;;;;;4888756;28;95754;-61
2022/05/13 12:40:05;;;;;;;16.33;13.15;;;19.10;82.70;;;;;;4897730;28;95668;-61
2022/05/13 12:42:47;;;;;;;15.13;13.48;;;19.10;82.70;;;;;;4886458;28;95444;-61
2022/05/13 12:45:41;;;;;;;16.75;13.57;;;19.10;82.70;;;;;;4894041;28;95925;-61
2022/05/13 12:48:19;;;;;;;15.70;13.00;;;19.00;82.70;;;;;;4893089;28;104530;-61
2022/05/13 12:51:12;;;;;;;17.17;13.80;;;19.10;82.70;;;;;;4892655;28;97653;-61
2022/05/13 12:53:58;;;;;;;15.52;12.73;;;19.10;82.70;;;;;;4886642;28;96009;-61
2022/05/13 12:56:34;;;;;;;14.40;11.63;;;19.00;82.60;;;;;;4888633;28;95905;-61
2022/05/13 12:59:13;;;;;;;18.10;13.10;;;19.10;82.70;;;;;;4889209;28;95795;-61
2022/05/13 13:01:57;;;;;;;14.52;12.23;;;19.00;82.60;;;;;;4894824;28;95648;-61
2022/05/13 13:04:35;;;;;;;17.05;12.60;;;19.00;82.60;;;;;;4910114;28;95941;-61
2022/05/13 13:07:20;;;;;;;14.43;11.40;;;19.00;82.60;;;;;;4910571;28;97220;-61
2022/05/13 13:09:52;;;;;;;15.43;11.18;;;19.00;82.70;;;;;;4909233;28;95696;-62
2022/05/13 13:12:43;;;;;;;13.52;12.10;;;19.10;82.80;;;;;;4917802;28;95872;-61
2022/05/13 13:15:36;;;;;;;12.18;9.85;;;19.10;82.80;;;;;;4898290;28;95640;-61
2022/05/13 13:18:10;;;;;;;13.82;11.32;;;19.10;82.80;;;;;;4901151;28;102944;-61
2022/05/13 13:20:55;;;;;;;12.88;10.85;;;19.10;82.80;;;;;;4901309;28;95937;-61
2022/05/13 13:23:34;;;;;;;12.32;10.85;;;19.10;82.70;;;;;;4909544;28;95833;-61
2022/05/13 13:26:08;;;;;;;11.90;10.52;;;19.10;82.70;;;;;;4905187;28;95670;-61
2022/05/13 13:28:43;;;;;;;12.10;10.57;;;19.00;82.70;;;;;;4912179;28;96157;-62
2022/05/13 13:31:22;;;;;;;13.80;11.32;;;19.10;82.80;;;;;;4906428;28;96098;-62
2022/05/13 13:33:54;;;;;;;12.13;9.63;;;19.10;82.90;;;;;;4902158;28;95856;-62
2022/05/13 13:36:31;;;;;;;11.10;9.88;;;19.10;82.80;;;;;;4900339;28;96374;-62
2022/05/13 13:39:29;;;;;;;11.18;9.55;;;19.00;82.90;;;;;;4894874;28;96110;-62
2022/05/13 13:42:08;;;;;;;12.25;9.80;;;19.00;83.00;;;;;;4911829;28;95993;-61
2022/05/13 13:44:41;;;;;;;12.48;10.55;;;19.00;83.10;;;;;;4897746;28;95649;-62
2022/05/13 13:47:28;;;;;;;13.57;10.63;;;19.00;83.10;;;;;;4895914;28;95646;-62
2022/05/13 13:50:00;;;;;;;11.27;10.10;;;19.00;83.10;;;;;;4908418;28;96039;-62
2022/05/13 13:52:36;;;;;;;9.98;8.80;;;19.00;83.10;;;;;;4913564;28;97291;-61
2022/05/13 13:55:30;;;;;;;10.52;9.50;;;19.00;83.10;;;;;;4910595;28;95211;-61
2022/05/13 13:58:34;;;;;;;10.90;9.77;;;19.00;83.20;;;;;;4904924;28;95753;-62
2022/05/13 14:01:18;;;;;;;11.95;9.98;;;18.90;83.20;;;;;;4909243;28;99356;-62
2022/05/13 14:04:25;;;;;;;10.20;9.07;;;18.90;83.10;;;;;;4926208;28;97297;-60
2022/05/13 14:07:05;;;;;;;11.45;9.93;;;18.90;83.10;;;;;;4902680;28;95599;-60
2022/05/13 14:09:39;;;;;;;;;;;18.90;83.10;;;;;;4914196;28;95732;-60